createdAt,value
2017-07-18T00:00:16.985Z,0
2017-07-18T00:01:18.557Z,0
2017-07-18T00:02:19.965Z,0
2017-07-18T00:03:21.626Z,0
2017-07-18T00:04:23.278Z,0
2017-07-18T00:06:04.651Z,0
2017-07-18T00:07:06.531Z,0
2017-07-18T00:08:29.546Z,0
2017-07-18T00:09:31.401Z,0
2017-07-18T00:10:33.823Z,0
2017-07-18T00:11:35.372Z,0
2017-07-18T00:12:37.562Z,0
2017-07-18T00:13:39.578Z,0
2017-07-18T00:14:41.297Z,0
2017-07-18T00:15:43.163Z,0
2017-07-18T00:16:45.618Z,0
2017-07-18T00:17:47.640Z,0
2017-07-18T00:18:49.334Z,0
2017-07-18T00:19:51.363Z,0
2017-07-18T00:20:53.626Z,0
2017-07-18T00:21:55.305Z,0
2017-07-18T14:13:06.126Z,38400
2017-07-18T14:14:08.502Z,38496
2017-07-18T14:15:10.496Z,38656
2017-07-18T14:16:12.772Z,38976
2017-07-18T14:17:14.289Z,38624
2017-07-18T14:18:15.812Z,38912
2017-07-18T14:19:17.361Z,38656
2017-07-18T14:20:19.518Z,38304
2017-07-18T14:21:21.295Z,38272
2017-07-18T14:22:25.957Z,38464
2017-07-18T14:23:28.040Z,38144
2017-07-18T14:24:29.545Z,37504
2017-07-18T14:25:31.228Z,37216
2017-07-18T14:26:32.704Z,37088
2017-07-18T14:27:34.220Z,37792
2017-07-18T14:28:35.803Z,38112
2017-07-18T14:29:38.731Z,38304
2017-07-18T14:30:40.513Z,39328
2017-07-18T14:31:43.072Z,40000
2017-07-18T14:32:45.284Z,41120
2017-07-18T14:33:46.747Z,44032
2017-07-18T14:34:48.458Z,47744
2017-07-18T14:35:50.624Z,58176
2017-07-18T14:36:52.561Z,67488
2017-07-18T14:37:54.136Z,69376
2017-07-18T14:38:55.858Z,65888
2017-07-18T14:39:57.681Z,59648
2017-07-18T14:40:59.549Z,59232
2017-07-18T14:42:01.102Z,59232
2017-07-18T14:43:02.820Z,55264
2017-07-18T14:44:04.530Z,52320
2017-07-18T14:45:06.360Z,49056
2017-07-18T14:46:08.706Z,46880
2017-07-18T14:47:10.413Z,47360
2017-07-18T14:48:11.915Z,49664
2017-07-18T14:49:13.479Z,50336
2017-07-18T14:50:15.741Z,48192
2017-07-18T14:51:17.230Z,45376
2017-07-18T14:52:18.802Z,42304
2017-07-18T14:53:20.271Z,39712
2017-07-18T14:54:21.931Z,39968
2017-07-18T14:55:23.644Z,41184
2017-07-18T14:56:25.081Z,41184
2017-07-18T14:57:26.896Z,40544
2017-07-18T14:58:29.251Z,38944
2017-07-18T14:59:30.717Z,39040
2017-07-18T15:00:32.469Z,38496
2017-07-18T15:01:36.143Z,38016
2017-07-18T15:02:37.949Z,39200
2017-07-18T15:03:40.167Z,37696
2017-07-18T15:04:42.261Z,35424
2017-07-18T15:05:44.537Z,34656
2017-07-18T15:06:46.102Z,36768
2017-07-18T15:07:47.559Z,41216
2017-07-18T15:08:49.075Z,39488
2017-07-18T15:09:50.805Z,37120
2017-07-18T15:10:52.678Z,36128
2017-07-18T15:11:54.216Z,35328
2017-07-18T15:12:57.923Z,35552
2017-07-18T15:13:59.504Z,34976
2017-07-18T15:15:01.057Z,33664
2017-07-18T15:16:02.722Z,34432
2017-07-18T15:17:04.403Z,34784
2017-07-18T15:18:05.919Z,34432
2017-07-18T15:19:07.576Z,35488
2017-07-18T15:20:09.384Z,37472
2017-07-18T15:21:11.223Z,37056
2017-07-18T15:22:12.669Z,35104
2017-07-18T15:23:14.152Z,20800
2017-07-18T15:24:15.744Z,8208
2017-07-18T15:25:17.448Z,6980
2017-07-18T15:26:21.721Z,6588
2017-07-18T15:27:24.206Z,6268
2017-07-18T15:28:27.528Z,6072
2017-07-18T15:29:30.763Z,6044
2017-07-18T15:30:39.441Z,5884
2017-07-18T15:31:42.137Z,5728
2017-07-18T15:32:45.497Z,5536
2017-07-18T15:33:48.584Z,5652
2017-07-18T15:34:53.321Z,5652
2017-07-18T15:35:56.395Z,5692
2017-07-18T15:37:00.831Z,5788
2017-07-18T15:38:04.394Z,5848
2017-07-18T15:39:07.157Z,5876
